sensor_id;sensor_type;location;lat;lon;timestamp;P1;durP1;ratioP1;P2;durP2;ratioP2
16346;SDS011;8283;48.504;13.734;2023-07-13T00:00:17;2.10;;;1.88;;
16346;SDS011;8283;48.504;13.734;2023-07-13T00:03:03;2.05;;;1.85;;
16346;SDS011;8283;48.504;13.734;2023-07-13T00:05:56;4.45;;;2.15;;
16346;SDS011;8283;48.504;13.734;2023-07-13T00:08:41;2.47;;;2.13;;
16346;SDS011;8283;48.504;13.734;2023-07-13T00:11:26;3.40;;;2.00;;
16346;SDS011;8283;48.504;13.734;2023-07-13T00:14:12;3.33;;;1.95;;
16346;SDS011;8283;48.504;13.734;2023-07-13T00:16:56;1.95;;;1.73;;
16346;SDS011;8283;48.504;13.734;2023-07-13T00:19:40;4.75;;;1.90;;
16346;SDS011;8283;48.504;13.734;2023-07-13T00:22:25;3.45;;;2.08;;
16346;SDS011;8283;48.504;13.734;2023-07-13T00:25:10;3.20;;;1.85;;
16346;SDS011;8283;48.504;13.734;2023-07-13T00:27:55;2.03;;;1.83;;
16346;SDS011;8283;48.504;13.734;2023-07-13T00:30:40;2.65;;;2.15;;
16346;SDS011;8283;48.504;13.734;2023-07-13T00:33:24;2.60;;;1.90;;
16346;SDS011;8283;48.504;13.734;2023-07-13T00:36:09;4.53;;;2.10;;
16346;SDS011;8283;48.504;13.734;2023-07-13T00:38:54;3.28;;;2.20;;
16346;SDS011;8283;48.504;13.734;2023-07-13T00:41:38;2.92;;;2.00;;
16346;SDS011;8283;48.504;13.734;2023-07-13T00:44:23;2.80;;;2.00;;
16346;SDS011;8283;48.504;13.734;2023-07-13T00:47:07;3.88;;;2.15;;
16346;SDS011;8283;48.504;13.734;2023-07-13T00:49:51;2.90;;;2.00;;
16346;SDS011;8283;48.504;13.734;2023-07-13T00:52:37;2.10;;;1.90;;
16346;SDS011;8283;48.504;13.734;2023-07-13T00:55:24;3.97;;;2.03;;
16346;SDS011;8283;48.504;13.734;2023-07-13T00:58:09;2.45;;;1.80;;
16346;SDS011;8283;48.504;13.734;2023-07-13T01:00:54;3.47;;;1.88;;
16346;SDS011;8283;48.504;13.734;2023-07-13T01:03:38;2.40;;;1.70;;
16346;SDS011;8283;48.504;13.734;2023-07-13T01:06:24;2.45;;;2.15;;
16346;SDS011;8283;48.504;13.734;2023-07-13T01:09:09;5.03;;;2.45;;
16346;SDS011;8283;48.504;13.734;2023-07-13T01:11:54;3.53;;;2.10;;
16346;SDS011;8283;48.504;13.734;2023-07-13T01:14:39;3.28;;;2.53;;
16346;SDS011;8283;48.504;13.734;2023-07-13T01:17:24;3.72;;;2.08;;
16346;SDS011;8283;48.504;13.734;2023-07-13T01:20:09;2.78;;;2.25;;
16346;SDS011;8283;48.504;13.734;2023-07-13T01:22:54;5.32;;;2.15;;
16346;SDS011;8283;48.504;13.734;2023-07-13T01:25:39;3.72;;;2.08;;
16346;SDS011;8283;48.504;13.734;2023-07-13T01:28:24;4.15;;;2.40;;
16346;SDS011;8283;48.504;13.734;2023-07-13T01:31:10;3.47;;;2.63;;
16346;SDS011;8283;48.504;13.734;2023-07-13T01:33:55;5.30;;;2.83;;
16346;SDS011;8283;48.504;13.734;2023-07-13T01:36:40;4.75;;;2.80;;
16346;SDS011;8283;48.504;13.734;2023-07-13T01:39:24;3.28;;;2.70;;
16346;SDS011;8283;48.504;13.734;2023-07-13T01:42:09;4.53;;;2.70;;
16346;SDS011;8283;48.504;13.734;2023-07-13T01:44:54;5.05;;;2.80;;
16346;SDS011;8283;48.504;13.734;2023-07-13T01:47:38;4.75;;;3.08;;
16346;SDS011;8283;48.504;13.734;2023-07-13T01:50:22;2.90;;;2.10;;
16346;SDS011;8283;48.504;13.734;2023-07-13T01:53:07;3.20;;;2.83;;
16346;SDS011;8283;48.504;13.734;2023-07-13T01:55:52;2.97;;;2.25;;
16346;SDS011;8283;48.504;13.734;2023-07-13T01:58:36;2.83;;;2.53;;
16346;SDS011;8283;48.504;13.734;2023-07-13T02:01:21;4.13;;;2.85;;
16346;SDS011;8283;48.504;13.734;2023-07-13T02:04:05;5.00;;;2.22;;
16346;SDS011;8283;48.504;13.734;2023-07-13T02:06:50;4.85;;;2.60;;
16346;SDS011;8283;48.504;13.734;2023-07-13T02:09:34;3.08;;;2.78;;
16346;SDS011;8283;48.504;13.734;2023-07-13T02:12:19;3.08;;;2.55;;
16346;SDS011;8283;48.504;13.734;2023-07-13T02:15:04;3.17;;;2.58;;
16346;SDS011;8283;48.504;13.734;2023-07-13T02:17:48;3.80;;;2.88;;
16346;SDS011;8283;48.504;13.734;2023-07-13T02:20:33;5.80;;;2.53;;
16346;SDS011;8283;48.504;13.734;2023-07-13T02:23:17;4.13;;;2.63;;
16346;SDS011;8283;48.504;13.734;2023-07-13T02:26:04;2.95;;;2.65;;
16346;SDS011;8283;48.504;13.734;2023-07-13T02:28:48;4.00;;;2.65;;
16346;SDS011;8283;48.504;13.734;2023-07-13T02:31:33;7.22;;;2.80;;
16346;SDS011;8283;48.504;13.734;2023-07-13T02:34:19;3.72;;;2.58;;
16346;SDS011;8283;48.504;13.734;2023-07-13T02:37:04;4.85;;;2.70;;
16346;SDS011;8283;48.504;13.734;2023-07-13T02:39:48;3.85;;;2.78;;
16346;SDS011;8283;48.504;13.734;2023-07-13T02:42:32;4.00;;;2.55;;
16346;SDS011;8283;48.504;13.734;2023-07-13T02:45:18;3.55;;;2.58;;
16346;SDS011;8283;48.504;13.734;2023-07-13T02:48:02;3.13;;;2.50;;
16346;SDS011;8283;48.504;13.734;2023-07-13T02:50:46;4.03;;;2.33;;
16346;SDS011;8283;48.504;13.734;2023-07-13T02:53:31;3.38;;;2.60;;
16346;SDS011;8283;48.504;13.734;2023-07-13T02:56:15;3.13;;;2.30;;
16346;SDS011;8283;48.504;13.734;2023-07-13T02:59:00;4.00;;;2.30;;
16346;SDS011;8283;48.504;13.734;2023-07-13T03:01:44;4.10;;;2.30;;
16346;SDS011;8283;48.504;13.734;2023-07-13T03:04:29;3.42;;;2.65;;
16346;SDS011;8283;48.504;13.734;2023-07-13T03:07:13;2.72;;;2.38;;
16346;SDS011;8283;48.504;13.734;2023-07-13T03:10:00;2.30;;;2.10;;
16346;SDS011;8283;48.504;13.734;2023-07-13T03:12:54;2.15;;;1.95;;
16346;SDS011;8283;48.504;13.734;2023-07-13T03:15:42;3.83;;;2.30;;
16346;SDS011;8283;48.504;13.734;2023-07-13T03:18:27;2.45;;;2.10;;
16346;SDS011;8283;48.504;13.734;2023-07-13T03:21:12;4.28;;;2.20;;
16346;SDS011;8283;48.504;13.734;2023-07-13T03:23:57;2.28;;;2.00;;
16346;SDS011;8283;48.504;13.734;2023-07-13T03:26:42;2.28;;;2.08;;
16346;SDS011;8283;48.504;13.734;2023-07-13T03:29:26;3.75;;;1.90;;
16346;SDS011;8283;48.504;13.734;2023-07-13T03:32:10;3.63;;;2.05;;
16346;SDS011;8283;48.504;13.734;2023-07-13T03:34:55;2.85;;;1.80;;
16346;SDS011;8283;48.504;13.734;2023-07-13T03:37:39;3.17;;;2.05;;
16346;SDS011;8283;48.504;13.734;2023-07-13T03:40:29;2.92;;;2.10;;
16346;SDS011;8283;48.504;13.734;2023-07-13T03:43:14;3.50;;;2.17;;
16346;SDS011;8283;48.504;13.734;2023-07-13T03:45:59;3.33;;;2.33;;
16346;SDS011;8283;48.504;13.734;2023-07-13T03:48:44;2.88;;;1.85;;
16346;SDS011;8283;48.504;13.734;2023-07-13T03:51:29;4.15;;;1.98;;
16346;SDS011;8283;48.504;13.734;2023-07-13T03:54:20;2.60;;;2.40;;
16346;SDS011;8283;48.504;13.734;2023-07-13T03:57:05;2.70;;;1.73;;
16346;SDS011;8283;48.504;13.734;2023-07-13T03:59:55;4.23;;;2.00;;
16346;SDS011;8283;48.504;13.734;2023-07-13T04:02:40;7.97;;;2.38;;
16346;SDS011;8283;48.504;13.734;2023-07-13T04:05:28;2.22;;;1.83;;
16346;SDS011;8283;48.504;13.734;2023-07-13T04:08:15;4.00;;;2.50;;
16346;SDS011;8283;48.504;13.734;2023-07-13T04:10:59;2.65;;;2.10;;
16346;SDS011;8283;48.504;13.734;2023-07-13T04:13:45;3.08;;;2.08;;
16346;SDS011;8283;48.504;13.734;2023-07-13T04:16:34;2.13;;;1.92;;
16346;SDS011;8283;48.504;13.734;2023-07-13T04:19:19;3.35;;;2.20;;
16346;SDS011;8283;48.504;13.734;2023-07-13T04:22:03;2.83;;;2.17;;
16346;SDS011;8283;48.504;13.734;2023-07-13T04:24:48;2.20;;;1.90;;
16346;SDS011;8283;48.504;13.734;2023-07-13T04:27:33;4.28;;;2.53;;
16346;SDS011;8283;48.504;13.734;2023-07-13T04:30:17;2.30;;;2.03;;
16346;SDS011;8283;48.504;13.734;2023-07-13T04:33:02;5.28;;;2.15;;
16346;SDS011;8283;48.504;13.734;2023-07-13T04:35:46;2.10;;;1.90;;
16346;SDS011;8283;48.504;13.734;2023-07-13T04:38:30;1.70;;;1.52;;
16346;SDS011;8283;48.504;13.734;2023-07-13T04:41:16;2.88;;;1.70;;
16346;SDS011;8283;48.504;13.734;2023-07-13T04:44:01;2.35;;;2.15;;
16346;SDS011;8283;48.504;13.734;2023-07-13T04:46:46;2.05;;;1.50;;
16346;SDS011;8283;48.504;13.734;2023-07-13T04:49:31;2.30;;;1.67;;
16346;SDS011;8283;48.504;13.734;2023-07-13T04:52:15;3.60;;;1.80;;
16346;SDS011;8283;48.504;13.734;2023-07-13T04:55:00;2.38;;;1.60;;
16346;SDS011;8283;48.504;13.734;2023-07-13T04:57:44;2.45;;;1.70;;
16346;SDS011;8283;48.504;13.734;2023-07-13T05:00:30;2.00;;;1.63;;
16346;SDS011;8283;48.504;13.734;2023-07-13T05:03:15;1.50;;;1.40;;
16346;SDS011;8283;48.504;13.734;2023-07-13T05:06:00;3.63;;;1.67;;
16346;SDS011;8283;48.504;13.734;2023-07-13T05:08:47;1.50;;;1.40;;
16346;SDS011;8283;48.504;13.734;2023-07-13T05:11:31;1.38;;;1.20;;
16346;SDS011;8283;48.504;13.734;2023-07-13T05:14:16;1.92;;;1.50;;
16346;SDS011;8283;48.504;13.734;2023-07-13T05:17:00;1.42;;;1.30;;
16346;SDS011;8283;48.504;13.734;2023-07-13T05:19:45;2.47;;;1.40;;
16346;SDS011;8283;48.504;13.734;2023-07-13T05:22:29;2.45;;;1.58;;
16346;SDS011;8283;48.504;13.734;2023-07-13T05:25:13;2.95;;;1.67;;
16346;SDS011;8283;48.504;13.734;2023-07-13T05:27:58;1.30;;;1.20;;
16346;SDS011;8283;48.504;13.734;2023-07-13T05:30:46;2.53;;;1.45;;
16346;SDS011;8283;48.504;13.734;2023-07-13T05:33:31;2.95;;;1.70;;
16346;SDS011;8283;48.504;13.734;2023-07-13T05:36:15;3.05;;;1.30;;
16346;SDS011;8283;48.504;13.734;2023-07-13T05:38:59;3.05;;;1.50;;
16346;SDS011;8283;48.504;13.734;2023-07-13T05:41:44;2.28;;;1.40;;
16346;SDS011;8283;48.504;13.734;2023-07-13T05:44:28;3.50;;;1.50;;
16346;SDS011;8283;48.504;13.734;2023-07-13T05:47:13;1.70;;;1.60;;
16346;SDS011;8283;48.504;13.734;2023-07-13T05:49:58;2.28;;;1.85;;
16346;SDS011;8283;48.504;13.734;2023-07-13T05:52:43;2.13;;;1.58;;
16346;SDS011;8283;48.504;13.734;2023-07-13T05:55:27;4.43;;;1.60;;
16346;SDS011;8283;48.504;13.734;2023-07-13T05:58:11;2.65;;;1.45;;
16346;SDS011;8283;48.504;13.734;2023-07-13T06:01:03;1.55;;;1.45;;
16346;SDS011;8283;48.504;13.734;2023-07-13T06:03:49;4.00;;;1.40;;
16346;SDS011;8283;48.504;13.734;2023-07-13T06:06:34;2.05;;;1.48;;
16346;SDS011;8283;48.504;13.734;2023-07-13T06:09:18;1.70;;;1.33;;
16346;SDS011;8283;48.504;13.734;2023-07-13T06:12:03;3.45;;;1.52;;
16346;SDS011;8283;48.504;13.734;2023-07-13T06:14:48;1.48;;;1.38;;
16346;SDS011;8283;48.504;13.734;2023-07-13T06:17:32;1.75;;;1.50;;
16346;SDS011;8283;48.504;13.734;2023-07-13T06:20:16;1.50;;;1.40;;
16346;SDS011;8283;48.504;13.734;2023-07-13T06:23:01;3.53;;;1.40;;
16346;SDS011;8283;48.504;13.734;2023-07-13T06:25:45;1.85;;;1.65;;
16346;SDS011;8283;48.504;13.734;2023-07-13T06:28:30;1.85;;;1.40;;
16346;SDS011;8283;48.504;13.734;2023-07-13T06:31:16;2.80;;;1.40;;
16346;SDS011;8283;48.504;13.734;2023-07-13T06:34:00;2.35;;;1.67;;
16346;SDS011;8283;48.504;13.734;2023-07-13T06:36:44;2.08;;;1.60;;
16346;SDS011;8283;48.504;13.734;2023-07-13T06:39:29;2.00;;;1.58;;
16346;SDS011;8283;48.504;13.734;2023-07-13T06:42:15;2.50;;;1.65;;
16346;SDS011;8283;48.504;13.734;2023-07-13T06:45:00;5.97;;;1.77;;
16346;SDS011;8283;48.504;13.734;2023-07-13T06:47:44;2.83;;;1.70;;
16346;SDS011;8283;48.504;13.734;2023-07-13T06:50:29;2.22;;;1.70;;
16346;SDS011;8283;48.504;13.734;2023-07-13T06:53:17;2.00;;;1.73;;
16346;SDS011;8283;48.504;13.734;2023-07-13T06:56:02;3.25;;;1.77;;
16346;SDS011;8283;48.504;13.734;2023-07-13T06:58:47;4.05;;;2.15;;
16346;SDS011;8283;48.504;13.734;2023-07-13T07:01:31;5.85;;;2.30;;
16346;SDS011;8283;48.504;13.734;2023-07-13T07:04:15;2.55;;;1.92;;
16346;SDS011;8283;48.504;13.734;2023-07-13T07:06:59;5.53;;;2.08;;
16346;SDS011;8283;48.504;13.734;2023-07-13T07:09:44;2.55;;;2.35;;
16346;SDS011;8283;48.504;13.734;2023-07-13T07:12:28;2.80;;;2.10;;
16346;SDS011;8283;48.504;13.734;2023-07-13T07:15:13;3.80;;;2.03;;
16346;SDS011;8283;48.504;13.734;2023-07-13T07:17:57;3.33;;;1.92;;
16346;SDS011;8283;48.504;13.734;2023-07-13T07:20:42;5.20;;;2.67;;
16346;SDS011;8283;48.504;13.734;2023-07-13T07:23:26;6.38;;;2.47;;
16346;SDS011;8283;48.504;13.734;2023-07-13T07:26:11;2.90;;;2.10;;
16346;SDS011;8283;48.504;13.734;2023-07-13T07:28:55;2.30;;;2.03;;
16346;SDS011;8283;48.504;13.734;2023-07-13T07:31:39;5.97;;;1.90;;
16346;SDS011;8283;48.504;13.734;2023-07-13T07:34:24;2.60;;;2.00;;
16346;SDS011;8283;48.504;13.734;2023-07-13T07:37:12;3.05;;;2.30;;
16346;SDS011;8283;48.504;13.734;2023-07-13T07:39:57;3.15;;;1.75;;
16346;SDS011;8283;48.504;13.734;2023-07-13T07:42:42;5.40;;;2.33;;
16346;SDS011;8283;48.504;13.734;2023-07-13T07:45:28;3.25;;;2.60;;
16346;SDS011;8283;48.504;13.734;2023-07-13T07:48:12;3.40;;;2.30;;
16346;SDS011;8283;48.504;13.734;2023-07-13T07:50:56;3.33;;;2.42;;
16346;SDS011;8283;48.504;13.734;2023-07-13T07:53:41;3.00;;;2.50;;
16346;SDS011;8283;48.504;13.734;2023-07-13T07:56:25;5.13;;;2.17;;
16346;SDS011;8283;48.504;13.734;2023-07-13T07:59:09;2.30;;;2.00;;
16346;SDS011;8283;48.504;13.734;2023-07-13T08:01:54;2.85;;;1.98;;
16346;SDS011;8283;48.504;13.734;2023-07-13T08:04:38;2.65;;;2.25;;
16346;SDS011;8283;48.504;13.734;2023-07-13T08:07:22;3.88;;;1.90;;
16346;SDS011;8283;48.504;13.734;2023-07-13T08:10:07;3.10;;;2.08;;
16346;SDS011;8283;48.504;13.734;2023-07-13T08:12:52;3.10;;;1.98;;
16346;SDS011;8283;48.504;13.734;2023-07-13T08:15:37;4.88;;;1.85;;
16346;SDS011;8283;48.504;13.734;2023-07-13T08:18:21;4.40;;;2.05;;
16346;SDS011;8283;48.504;13.734;2023-07-13T08:21:06;3.88;;;2.05;;
16346;SDS011;8283;48.504;13.734;2023-07-13T08:23:51;2.50;;;2.15;;
16346;SDS011;8283;48.504;13.734;2023-07-13T08:26:36;4.47;;;1.67;;
16346;SDS011;8283;48.504;13.734;2023-07-13T08:29:20;3.08;;;1.80;;
16346;SDS011;8283;48.504;13.734;2023-07-13T08:32:05;5.32;;;2.33;;
16346;SDS011;8283;48.504;13.734;2023-07-13T08:34:53;2.63;;;1.70;;
16346;SDS011;8283;48.504;13.734;2023-07-13T08:37:37;3.05;;;1.75;;
16346;SDS011;8283;48.504;13.734;2023-07-13T08:40:23;3.85;;;1.92;;
16346;SDS011;8283;48.504;13.734;2023-07-13T08:43:12;2.70;;;1.88;;
16346;SDS011;8283;48.504;13.734;2023-07-13T08:49:24;3.45;;;1.70;;
16346;SDS011;8283;48.504;13.734;2023-07-13T08:52:12;2.15;;;1.50;;
16346;SDS011;8283;48.504;13.734;2023-07-13T08:58:11;3.25;;;2.00;;
16346;SDS011;8283;48.504;13.734;2023-07-13T09:01:17;2.75;;;1.58;;
16346;SDS011;8283;48.504;13.734;2023-07-13T09:04:09;2.38;;;1.58;;
16346;SDS011;8283;48.504;13.734;2023-07-13T09:07:02;2.55;;;1.40;;
16346;SDS011;8283;48.504;13.734;2023-07-13T09:10:01;1.92;;;1.60;;
16346;SDS011;8283;48.504;13.734;2023-07-13T09:13:19;4.55;;;1.80;;
16346;SDS011;8283;48.504;13.734;2023-07-13T09:16:10;3.60;;;1.52;;
16346;SDS011;8283;48.504;13.734;2023-07-13T09:18:56;2.90;;;1.50;;
16346;SDS011;8283;48.504;13.734;2023-07-13T09:21:45;1.80;;;1.65;;
16346;SDS011;8283;48.504;13.734;2023-07-13T09:27:57;2.65;;;1.30;;
16346;SDS011;8283;48.504;13.734;2023-07-13T09:30:49;1.88;;;1.60;;
16346;SDS011;8283;48.504;13.734;2023-07-13T09:33:38;2.70;;;1.42;;
16346;SDS011;8283;48.504;13.734;2023-07-13T09:36:29;2.83;;;1.67;;
16346;SDS011;8283;48.504;13.734;2023-07-13T09:39:25;1.52;;;1.40;;
16346;SDS011;8283;48.504;13.734;2023-07-13T09:42:20;2.30;;;1.40;;
16346;SDS011;8283;48.504;13.734;2023-07-13T09:45:06;2.45;;;1.40;;
16346;SDS011;8283;48.504;13.734;2023-07-13T09:47:51;1.33;;;1.23;;
16346;SDS011;8283;48.504;13.734;2023-07-13T09:50:54;3.43;;;1.20;;
16346;SDS011;8283;48.504;13.734;2023-07-13T09:53:41;4.75;;;1.50;;
16346;SDS011;8283;48.504;13.734;2023-07-13T09:56:27;2.70;;;1.60;;
16346;SDS011;8283;48.504;13.734;2023-07-13T09:59:20;3.45;;;1.55;;
16346;SDS011;8283;48.504;13.734;2023-07-13T10:02:23;1.95;;;1.33;;
16346;SDS011;8283;48.504;13.734;2023-07-13T10:05:19;1.67;;;1.08;;
16346;SDS011;8283;48.504;13.734;2023-07-13T10:08:05;2.88;;;1.10;;
16346;SDS011;8283;48.504;13.734;2023-07-13T10:10:59;2.00;;;1.13;;
16346;SDS011;8283;48.504;13.734;2023-07-13T10:13:57;4.57;;;1.60;;
16346;SDS011;8283;48.504;13.734;2023-07-13T10:16:45;1.80;;;1.38;;
16346;SDS011;8283;48.504;13.734;2023-07-13T10:19:34;1.50;;;1.20;;
16346;SDS011;8283;48.504;13.734;2023-07-13T10:25:13;3.53;;;1.40;;
16346;SDS011;8283;48.504;13.734;2023-07-13T10:31:20;3.95;;;1.55;;
16346;SDS011;8283;48.504;13.734;2023-07-13T10:34:08;3.72;;;1.30;;
16346;SDS011;8283;48.504;13.734;2023-07-13T10:36:54;1.30;;;1.20;;
16346;SDS011;8283;48.504;13.734;2023-07-13T10:39:40;1.65;;;1.30;;
16346;SDS011;8283;48.504;13.734;2023-07-13T10:42:29;1.50;;;1.30;;
16346;SDS011;8283;48.504;13.734;2023-07-13T10:45:21;2.75;;;1.48;;
16346;SDS011;8283;48.504;13.734;2023-07-13T10:48:08;2.53;;;1.15;;
16346;SDS011;8283;48.504;13.734;2023-07-13T10:50:56;2.03;;;1.20;;
16346;SDS011;8283;48.504;13.734;2023-07-13T10:53:43;1.90;;;1.40;;
16346;SDS011;8283;48.504;13.734;2023-07-13T10:56:30;3.35;;;1.60;;
16346;SDS011;8283;48.504;13.734;2023-07-13T10:59:17;4.65;;;1.63;;
16346;SDS011;8283;48.504;13.734;2023-07-13T11:02:11;1.45;;;1.23;;
16346;SDS011;8283;48.504;13.734;2023-07-13T11:26:00;5.70;;;1.48;;
16346;SDS011;8283;48.504;13.734;2023-07-13T11:28:46;2.15;;;1.60;;
16346;SDS011;8283;48.504;13.734;2023-07-13T11:31:34;2.85;;;1.95;;
16346;SDS011;8283;48.504;13.734;2023-07-13T11:34:52;5.00;;;1.80;;
16346;SDS011;8283;48.504;13.734;2023-07-13T11:40:14;2.42;;;1.70;;
16346;SDS011;8283;48.504;13.734;2023-07-13T11:43:00;1.63;;;1.38;;
16346;SDS011;8283;48.504;13.734;2023-07-13T11:45:45;3.15;;;1.70;;
16346;SDS011;8283;48.504;13.734;2023-07-13T11:48:29;3.42;;;1.63;;
16346;SDS011;8283;48.504;13.734;2023-07-13T11:51:22;1.90;;;1.40;;
16346;SDS011;8283;48.504;13.734;2023-07-13T11:54:22;2.97;;;1.52;;
16346;SDS011;8283;48.504;13.734;2023-07-13T12:00:23;2.70;;;1.20;;
16346;SDS011;8283;48.504;13.734;2023-07-13T12:03:11;2.50;;;1.60;;
16346;SDS011;8283;48.504;13.734;2023-07-13T12:06:06;4.68;;;1.45;;
16346;SDS011;8283;48.504;13.734;2023-07-13T12:09:11;2.47;;;1.25;;
16346;SDS011;8283;48.504;13.734;2023-07-13T12:11:57;3.85;;;2.08;;
16346;SDS011;8283;48.504;13.734;2023-07-13T12:14:44;2.55;;;1.40;;
16346;SDS011;8283;48.504;13.734;2023-07-13T12:17:28;2.17;;;1.42;;
16346;SDS011;8283;48.504;13.734;2023-07-13T12:20:33;5.55;;;1.63;;
16346;SDS011;8283;48.504;13.734;2023-07-13T12:23:34;3.53;;;1.63;;
16346;SDS011;8283;48.504;13.734;2023-07-13T12:26:19;2.20;;;1.30;;
16346;SDS011;8283;48.504;13.734;2023-07-13T12:29:05;4.13;;;1.50;;
16346;SDS011;8283;48.504;13.734;2023-07-13T12:31:50;4.25;;;2.05;;
16346;SDS011;8283;48.504;13.734;2023-07-13T12:34:49;1.60;;;1.27;;
16346;SDS011;8283;48.504;13.734;2023-07-13T12:37:41;1.52;;;1.40;;
16346;SDS011;8283;48.504;13.734;2023-07-13T12:40:28;2.92;;;1.45;;
16346;SDS011;8283;48.504;13.734;2023-07-13T12:46:03;2.65;;;1.48;;
16346;SDS011;8283;48.504;13.734;2023-07-13T12:48:52;2.20;;;1.60;;
16346;SDS011;8283;48.504;13.734;2023-07-13T12:51:37;1.75;;;1.35;;
16346;SDS011;8283;48.504;13.734;2023-07-13T12:54:23;1.90;;;1.20;;
16346;SDS011;8283;48.504;13.734;2023-07-13T12:57:12;2.10;;;1.42;;
16346;SDS011;8283;48.504;13.734;2023-07-13T13:00:00;2.35;;;1.65;;
16346;SDS011;8283;48.504;13.734;2023-07-13T13:02:49;2.80;;;1.40;;
16346;SDS011;8283;48.504;13.734;2023-07-13T13:05:35;2.47;;;1.30;;
16346;SDS011;8283;48.504;13.734;2023-07-13T13:08:21;2.10;;;1.30;;
16346;SDS011;8283;48.504;13.734;2023-07-13T13:11:06;1.90;;;1.33;;
16346;SDS011;8283;48.504;13.734;2023-07-13T13:13:50;2.30;;;1.27;;
16346;SDS011;8283;48.504;13.734;2023-07-13T13:16:37;1.70;;;1.13;;
16346;SDS011;8283;48.504;13.734;2023-07-13T13:19:35;12.50;;;1.63;;
16346;SDS011;8283;48.504;13.734;2023-07-13T13:22:19;1.48;;;1.20;;
16346;SDS011;8283;48.504;13.734;2023-07-13T13:25:04;4.75;;;1.58;;
16346;SDS011;8283;48.504;13.734;2023-07-13T13:27:52;1.60;;;1.00;;
16346;SDS011;8283;48.504;13.734;2023-07-13T13:30:37;4.30;;;1.27;;
16346;SDS011;8283;48.504;13.734;2023-07-13T13:33:21;1.75;;;1.05;;
16346;SDS011;8283;48.504;13.734;2023-07-13T13:36:07;3.28;;;1.10;;
16346;SDS011;8283;48.504;13.734;2023-07-13T13:38:59;1.58;;;1.20;;
16346;SDS011;8283;48.504;13.734;2023-07-13T13:41:45;1.75;;;0.95;;
16346;SDS011;8283;48.504;13.734;2023-07-13T13:44:30;1.77;;;1.05;;
16346;SDS011;8283;48.504;13.734;2023-07-13T13:47:48;1.83;;;0.90;;
16346;SDS011;8283;48.504;13.734;2023-07-13T13:50:27;5.28;;;1.10;;
16346;SDS011;8283;48.504;13.734;2023-07-13T13:53:12;0.93;;;0.80;;
16346;SDS011;8283;48.504;13.734;2023-07-13T13:56:00;2.65;;;1.05;;
16346;SDS011;8283;48.504;13.734;2023-07-13T13:58:44;1.63;;;1.30;;
16346;SDS011;8283;48.504;13.734;2023-07-13T14:01:30;1.75;;;1.25;;
16346;SDS011;8283;48.504;13.734;2023-07-13T14:04:16;2.22;;;1.10;;
16346;SDS011;8283;48.504;13.734;2023-07-13T14:07:03;1.02;;;0.90;;
16346;SDS011;8283;48.504;13.734;2023-07-13T14:09:48;1.33;;;0.90;;
16346;SDS011;8283;48.504;13.734;2023-07-13T14:12:32;1.67;;;0.98;;
16346;SDS011;8283;48.504;13.734;2023-07-13T14:15:26;1.33;;;0.88;;
16346;SDS011;8283;48.504;13.734;2023-07-13T14:18:12;3.15;;;0.90;;
16346;SDS011;8283;48.504;13.734;2023-07-13T14:21:01;1.65;;;1.10;;
16346;SDS011;8283;48.504;13.734;2023-07-13T14:23:45;3.97;;;1.00;;
16346;SDS011;8283;48.504;13.734;2023-07-13T14:26:32;1.90;;;1.33;;
16346;SDS011;8283;48.504;13.734;2023-07-13T14:32:07;1.00;;;0.82;;
16346;SDS011;8283;48.504;13.734;2023-07-13T14:34:56;1.35;;;0.80;;
16346;SDS011;8283;48.504;13.734;2023-07-13T14:37:41;1.60;;;0.90;;
16346;SDS011;8283;48.504;13.734;2023-07-13T14:40:28;2.63;;;0.93;;
16346;SDS011;8283;48.504;13.734;2023-07-13T14:43:14;1.15;;;0.70;;
16346;SDS011;8283;48.504;13.734;2023-07-13T14:46:00;1.63;;;1.10;;
16346;SDS011;8283;48.504;13.734;2023-07-13T14:48:45;5.57;;;0.93;;
16346;SDS011;8283;48.504;13.734;2023-07-13T14:51:29;2.00;;;0.90;;
16346;SDS011;8283;48.504;13.734;2023-07-13T14:54:15;9.65;;;1.38;;
16346;SDS011;8283;48.504;13.734;2023-07-13T14:56:59;4.13;;;1.40;;
16346;SDS011;8283;48.504;13.734;2023-07-13T14:59:45;3.13;;;1.08;;
16346;SDS011;8283;48.504;13.734;2023-07-13T15:02:32;1.85;;;0.93;;
16346;SDS011;8283;48.504;13.734;2023-07-13T15:05:21;1.10;;;0.73;;
16346;SDS011;8283;48.504;13.734;2023-07-13T15:08:08;1.20;;;0.77;;
16346;SDS011;8283;48.504;13.734;2023-07-13T15:10:54;1.10;;;1.00;;
16346;SDS011;8283;48.504;13.734;2023-07-13T15:13:41;1.77;;;1.10;;
16346;SDS011;8283;48.504;13.734;2023-07-13T15:16:28;2.92;;;0.85;;
16346;SDS011;8283;48.504;13.734;2023-07-13T15:19:13;0.77;;;0.77;;
16346;SDS011;8283;48.504;13.734;2023-07-13T15:21:57;1.48;;;1.00;;
16346;SDS011;8283;48.504;13.734;2023-07-13T15:24:41;1.23;;;0.80;;
16346;SDS011;8283;48.504;13.734;2023-07-13T15:27:26;1.38;;;0.98;;
16346;SDS011;8283;48.504;13.734;2023-07-13T15:30:11;1.60;;;1.00;;
16346;SDS011;8283;48.504;13.734;2023-07-13T15:33:00;1.83;;;0.77;;
16346;SDS011;8283;48.504;13.734;2023-07-13T15:35:53;2.22;;;1.00;;
16346;SDS011;8283;48.504;13.734;2023-07-13T15:38:39;1.42;;;0.73;;
16346;SDS011;8283;48.504;13.734;2023-07-13T15:41:27;1.60;;;0.90;;
16346;SDS011;8283;48.504;13.734;2023-07-13T15:44:23;2.33;;;1.25;;
16346;SDS011;8283;48.504;13.734;2023-07-13T15:47:15;1.15;;;1.00;;
16346;SDS011;8283;48.504;13.734;2023-07-13T15:50:01;1.52;;;1.00;;
16346;SDS011;8283;48.504;13.734;2023-07-13T15:52:53;3.75;;;0.90;;
16346;SDS011;8283;48.504;13.734;2023-07-13T15:55:42;2.30;;;1.00;;
16346;SDS011;8283;48.504;13.734;2023-07-13T15:58:26;1.70;;;0.85;;
16346;SDS011;8283;48.504;13.734;2023-07-13T16:01:12;1.95;;;1.10;;
16346;SDS011;8283;48.504;13.734;2023-07-13T16:03:57;1.20;;;1.00;;
16346;SDS011;8283;48.504;13.734;2023-07-13T16:06:42;2.05;;;1.20;;
16346;SDS011;8283;48.504;13.734;2023-07-13T16:09:27;1.70;;;0.98;;
16346;SDS011;8283;48.504;13.734;2023-07-13T16:12:13;2.05;;;0.98;;
16346;SDS011;8283;48.504;13.734;2023-07-13T16:14:59;3.05;;;0.90;;
16346;SDS011;8283;48.504;13.734;2023-07-13T16:17:44;0.88;;;0.88;;
16346;SDS011;8283;48.504;13.734;2023-07-13T16:20:30;1.88;;;0.85;;
16346;SDS011;8283;48.504;13.734;2023-07-13T16:23:15;2.42;;;1.08;;
16346;SDS011;8283;48.504;13.734;2023-07-13T16:26:00;1.92;;;1.00;;
16346;SDS011;8283;48.504;13.734;2023-07-13T16:28:46;3.13;;;0.80;;
16346;SDS011;8283;48.504;13.734;2023-07-13T16:31:31;3.53;;;1.15;;
16346;SDS011;8283;48.504;13.734;2023-07-13T16:34:18;2.30;;;0.80;;
16346;SDS011;8283;48.504;13.734;2023-07-13T16:37:03;2.78;;;1.13;;
16346;SDS011;8283;48.504;13.734;2023-07-13T16:40:30;1.52;;;0.80;;
16346;SDS011;8283;48.504;13.734;2023-07-13T16:43:17;1.85;;;1.10;;
16346;SDS011;8283;48.504;13.734;2023-07-13T16:46:07;1.50;;;1.10;;
16346;SDS011;8283;48.504;13.734;2023-07-13T16:48:55;2.88;;;0.90;;
16346;SDS011;8283;48.504;13.734;2023-07-13T16:51:39;1.73;;;1.20;;
16346;SDS011;8283;48.504;13.734;2023-07-13T16:54:23;2.28;;;0.82;;
16346;SDS011;8283;48.504;13.734;2023-07-13T16:57:20;1.65;;;0.90;;
16346;SDS011;8283;48.504;13.734;2023-07-13T17:00:16;2.30;;;1.20;;
16346;SDS011;8283;48.504;13.734;2023-07-13T17:03:07;1.30;;;0.80;;
16346;SDS011;8283;48.504;13.734;2023-07-13T17:05:54;2.08;;;0.93;;
16346;SDS011;8283;48.504;13.734;2023-07-13T17:08:40;0.90;;;0.80;;
16346;SDS011;8283;48.504;13.734;2023-07-13T17:11:25;1.55;;;1.10;;
16346;SDS011;8283;48.504;13.734;2023-07-13T17:14:16;1.60;;;0.70;;
16346;SDS011;8283;48.504;13.734;2023-07-13T17:17:13;1.77;;;0.80;;
16346;SDS011;8283;48.504;13.734;2023-07-13T17:20:00;1.35;;;0.95;;
16346;SDS011;8283;48.504;13.734;2023-07-13T17:22:46;1.05;;;0.95;;
16346;SDS011;8283;48.504;13.734;2023-07-13T17:25:31;2.42;;;1.00;;
16346;SDS011;8283;48.504;13.734;2023-07-13T17:28:16;2.83;;;1.00;;
16346;SDS011;8283;48.504;13.734;2023-07-13T17:31:01;1.52;;;1.00;;
16346;SDS011;8283;48.504;13.734;2023-07-13T17:33:46;1.30;;;1.00;;